Time;durP1;ratioP1;P1;durP2;ratioP2;P2;SDS_P1;SDS_P2;PMS_P1;PMS_P2;Temp;Humidity;BMP_temperature;BMP_pressure;BME280_temperature;BME280_humidity;BME280_pressure;Samples;Min_cycle;Max_cycle;Signal;HPM_P1;HPM_P2
2023/07/03 00:02:00;;;;;;;23.33;4.25;;;;;;;;;;5079196;27;100189;-79
2023/07/03 00:04:27;;;;;;;16.98;3.85;;;;;;;;;;5078551;27;100824;-80
2023/07/03 00:06:54;;;;;;;18.33;4.57;;;;;;;;;;5080712;27;100379;-79
2023/07/03 00:09:21;;;;;;;14.05;3.67;;;;;;;;;;5072319;27;98898;-80
2023/07/03 00:11:47;;;;;;;26.52;4.72;;;;;;;;;;5073567;27;100653;-80
2023/07/03 00:14:14;;;;;;;13.40;4.13;;;;;;;;;;5072888;27;99899;-81
2023/07/03 00:16:40;;;;;;;22.40;3.80;;;;;;;;;;5060294;27;99048;-79
2023/07/03 00:19:07;;;;;;;17.83;3.80;;;;;;;;;;5079283;27;98641;-82
2023/07/03 00:21:38;;;;;;;16.17;3.53;;;;;;;;;;5071952;27;100419;-81
2023/07/03 00:24:05;;;;;;;22.02;3.88;;;;;;;;;;5073256;27;99782;-79
2023/07/03 00:26:32;;;;;;;18.60;3.60;;;;;;;;;;5078270;27;100872;-82
2023/07/03 00:28:59;;;;;;;14.45;4.15;;;;;;;;;;5081501;27;99267;-81
2023/07/03 00:31:26;;;;;;;18.63;3.92;;;;;;;;;;5077510;27;99040;-80
2023/07/03 00:33:53;;;;;;;18.48;3.90;;;;;;;;;;5072509;27;99858;-80
2023/07/03 00:36:19;;;;;;;18.92;4.00;;;;;;;;;;5077165;27;99016;-79
2023/07/03 00:38:48;;;;;;;17.63;4.07;;;;;;;;;;5077752;27;99042;-80
2023/07/03 00:41:14;;;;;;;20.63;5.03;;;;;;;;;;5052327;27;101606;-80
2023/07/03 00:43:41;;;;;;;20.55;4.40;;;;;;;;;;5056269;27;101946;-80
2023/07/03 00:46:09;;;;;;;17.30;4.22;;;;;;;;;;5060493;27;100070;-80
2023/07/03 00:48:39;;;;;;;22.20;4.40;;;;;;;;;;5081987;27;99452;-80
2023/07/03 00:51:06;;;;;;;21.92;4.03;;;;;;;;;;5076986;27;102865;-80
2023/07/03 00:53:32;;;;;;;21.58;5.07;;;;;;;;;;5071839;27;100094;-81
2023/07/03 00:55:59;;;;;;;24.23;4.47;;;;;;;;;;5073878;27;98952;-81
2023/07/03 00:58:26;;;;;;;13.60;3.88;;;;;;;;;;5075239;27;100475;-79
2023/07/03 01:00:56;;;;;;;12.15;3.42;;;;;;;;;;5057737;27;101581;-79
2023/07/03 01:03:26;;;;;;;16.48;3.80;;;;;;;;;;5040087;27;101495;-79
2023/07/03 01:05:55;;;;;;;16.58;3.70;;;;;;;;;;5075230;27;99105;-81
2023/07/03 01:08:22;;;;;;;21.75;5.15;;;;;;;;;;5079832;27;100037;-80
2023/07/03 01:10:48;;;;;;;21.15;4.57;;;;;;;;;;5083054;27;99447;-80
2023/07/03 01:13:17;;;;;;;18.02;4.20;;;;;;;;;;5073600;27;99283;-79
2023/07/03 01:15:44;;;;;;;20.85;4.25;;;;;;;;;;5080753;27;99250;-79
2023/07/03 01:18:11;;;;;;;21.05;4.88;;;;;;;;;;5082442;27;99303;-80
2023/07/03 01:20:41;;;;;;;21.65;4.60;;;;;;;;;;5081564;27;98757;-79
2023/07/03 01:23:13;;;;;;;12.32;4.35;;;;;;;;;;5062144;27;100144;-80
2023/07/03 01:25:41;;;;;;;17.75;3.83;;;;;;;;;;5069783;27;100353;-80
2023/07/03 01:28:10;;;;;;;23.50;4.22;;;;;;;;;;5068384;27;99690;-81
2023/07/03 01:30:40;;;;;;;18.77;4.32;;;;;;;;;;5051723;27;99208;-80
2023/07/03 01:33:08;;;;;;;25.17;4.57;;;;;;;;;;5057332;27;101967;-81
2023/07/03 01:35:34;;;;;;;23.95;4.70;;;;;;;;;;5069976;27;98564;-81
2023/07/03 01:38:02;;;;;;;19.80;4.35;;;;;;;;;;5066851;27;101919;-81
2023/07/03 01:40:29;;;;;;;19.02;4.47;;;;;;;;;;5067717;27;99367;-81
2023/07/03 01:42:57;;;;;;;20.23;4.38;;;;;;;;;;5071279;27;100280;-82
2023/07/03 01:45:24;;;;;;;22.40;4.60;;;;;;;;;;5071458;27;100315;-80
2023/07/03 01:47:51;;;;;;;21.55;4.55;;;;;;;;;;5086564;27;100054;-81
2023/07/03 01:50:23;;;;;;;36.95;5.60;;;;;;;;;;5083586;27;100010;-80
2023/07/03 01:52:54;;;;;;;16.52;4.72;;;;;;;;;;5085806;27;99298;-80
2023/07/03 01:55:38;;;;;;;12.48;3.25;;;;;;;;;;5073492;27;101485;-80
2023/07/03 01:58:06;;;;;;;22.27;4.53;;;;;;;;;;5089850;27;98473;-79
2023/07/03 02:00:40;;;;;;;22.75;4.63;;;;;;;;;;5070935;27;100469;-79
2023/07/03 02:03:18;;;;;;;24.48;6.07;;;;;;;;;;5072345;27;99367;-79
2023/07/03 02:05:45;;;;;;;22.30;5.45;;;;;;;;;;5069108;27;100048;-80
2023/07/03 02:08:13;;;;;;;15.00;4.60;;;;;;;;;;5049319;27;100786;-79
2023/07/03 02:10:39;;;;;;;28.92;5.65;;;;;;;;;;5067670;27;98826;-79
2023/07/03 02:13:06;;;;;;;24.48;5.15;;;;;;;;;;5068569;27;99296;-79
2023/07/03 02:15:34;;;;;;;27.08;6.65;;;;;;;;;;5033870;27;99990;-81
2023/07/03 02:18:01;;;;;;;31.33;6.13;;;;;;;;;;5066351;27;101467;-79
2023/07/03 02:20:30;;;;;;;16.55;4.28;;;;;;;;;;5071488;27;101382;-79
2023/07/03 02:22:56;;;;;;;24.92;5.25;;;;;;;;;;5058642;27;100553;-79
2023/07/03 02:25:23;;;;;;;23.10;4.97;;;;;;;;;;5069368;27;100375;-79
2023/07/03 02:27:50;;;;;;;22.88;4.50;;;;;;;;;;5074557;27;98979;-79
2023/07/03 02:30:16;;;;;;;22.85;5.40;;;;;;;;;;5070622;27;101643;-78
2023/07/03 02:32:43;;;;;;;26.30;5.25;;;;;;;;;;5073234;27;101036;-80
2023/07/03 02:35:09;;;;;;;19.98;4.20;;;;;;;;;;5089040;27;98477;-79
2023/07/03 02:37:36;;;;;;;22.88;4.60;;;;;;;;;;5101513;27;98445;-79
2023/07/03 02:40:10;;;;;;;22.70;4.63;;;;;;;;;;5087921;27;98916;-79
2023/07/03 02:42:36;;;;;;;19.63;4.60;;;;;;;;;;5072742;27;98579;-80
2023/07/03 02:45:04;;;;;;;19.13;4.95;;;;;;;;;;5070342;27;101253;-79
2023/07/03 02:47:33;;;;;;;24.48;5.25;;;;;;;;;;5053949;27;101625;-80
2023/07/03 02:50:01;;;;;;;22.25;4.93;;;;;;;;;;5070023;27;99220;-79
2023/07/03 02:52:28;;;;;;;17.50;4.20;;;;;;;;;;5069437;27;101907;-79
2023/07/03 02:54:54;;;;;;;21.45;5.43;;;;;;;;;;5069588;27;101709;-80
2023/07/03 02:57:21;;;;;;;20.25;6.28;;;;;;;;;;5069325;27;102989;-81
2023/07/03 02:59:49;;;;;;;21.73;4.00;;;;;;;;;;5072743;27;101783;-79
2023/07/03 03:02:16;;;;;;;24.77;5.28;;;;;;;;;;5061385;27;101419;-80
2023/07/03 03:04:42;;;;;;;21.50;4.95;;;;;;;;;;5067235;27;102000;-80
2023/07/03 03:07:09;;;;;;;26.42;5.60;;;;;;;;;;5087948;27;98977;-80
2023/07/03 03:09:36;;;;;;;18.38;4.40;;;;;;;;;;5069174;27;101667;-79
2023/07/03 03:12:03;;;;;;;23.90;5.70;;;;;;;;;;5088069;27;98380;-79
2023/07/03 03:14:30;;;;;;;28.42;4.82;;;;;;;;;;5069055;27;101840;-80
2023/07/03 03:16:57;;;;;;;25.83;4.63;;;;;;;;;;5069907;27;101922;-79
2023/07/03 03:19:24;;;;;;;17.95;4.70;;;;;;;;;;5087563;27;99842;-80
2023/07/03 03:21:50;;;;;;;21.27;4.75;;;;;;;;;;5072749;27;100905;-79
2023/07/03 03:24:18;;;;;;;20.80;5.07;;;;;;;;;;5069378;27;101445;-80
2023/07/03 03:26:44;;;;;;;25.27;6.18;;;;;;;;;;5064317;27;101642;-79
2023/07/03 03:29:11;;;;;;;20.85;5.45;;;;;;;;;;5067057;27;99863;-79
2023/07/03 03:31:38;;;;;;;21.77;4.22;;;;;;;;;;5049480;27;100635;-80
2023/07/03 03:34:06;;;;;;;22.30;4.65;;;;;;;;;;5047614;27;100246;-79
2023/07/03 03:36:38;;;;;;;23.15;4.35;;;;;;;;;;5067685;27;100160;-80
2023/07/03 03:39:06;;;;;;;21.80;5.55;;;;;;;;;;5048708;27;101827;-80
2023/07/03 03:41:32;;;;;;;20.67;4.97;;;;;;;;;;5070568;27;98729;-79
2023/07/03 03:44:00;;;;;;;22.83;5.07;;;;;;;;;;5071140;27;100947;-81
2023/07/03 03:46:27;;;;;;;30.67;5.97;;;;;;;;;;5088368;27;99096;-79
2023/07/03 03:48:54;;;;;;;19.55;4.55;;;;;;;;;;5067957;27;101690;-80
2023/07/03 03:51:22;;;;;;;25.05;6.00;;;;;;;;;;5068217;27;101385;-80
2023/07/03 03:53:48;;;;;;;17.90;4.45;;;;;;;;;;5048150;27;100394;-80
2023/07/03 03:56:15;;;;;;;20.27;4.35;;;;;;;;;;5047279;27;100950;-79
2023/07/03 03:58:43;;;;;;;19.25;4.55;;;;;;;;;;5049087;27;100957;-79
2023/07/03 04:01:09;;;;;;;19.63;4.10;;;;;;;;;;5048550;27;101686;-80
2023/07/03 04:03:36;;;;;;;16.25;4.00;;;;;;;;;;5049136;27;99479;-79
2023/07/03 04:06:05;;;;;;;14.95;3.70;;;;;;;;;;5051517;27;101286;-79
2023/07/03 04:08:35;;;;;;;18.80;4.72;;;;;;;;;;5065517;27;99779;-80
2023/07/03 04:11:03;;;;;;;8.90;3.33;;;;;;;;;;5059704;27;99457;-80
2023/07/03 04:13:31;;;;;;;18.60;3.80;;;;;;;;;;5046306;27;100349;-80
2023/07/03 04:16:00;;;;;;;19.58;3.60;;;;;;;;;;5067711;27;100357;-79
2023/07/03 04:18:28;;;;;;;18.55;3.58;;;;;;;;;;5066326;27;99852;-81
2023/07/03 04:20:54;;;;;;;16.42;3.50;;;;;;;;;;5067263;27;99445;-80
2023/07/03 04:23:21;;;;;;;7.85;2.75;;;;;;;;;;5066938;27;100143;-80
2023/07/03 04:25:49;;;;;;;9.98;2.60;;;;;;;;;;5066682;27;98002;-81
2023/07/03 04:28:17;;;;;;;10.57;2.95;;;;;;;;;;5069660;27;100445;-81
2023/07/03 04:30:44;;;;;;;12.95;3.28;;;;;;;;;;5068033;27;99504;-81
2023/07/03 04:33:11;;;;;;;16.38;2.97;;;;;;;;;;5072349;27;100371;-80
2023/07/03 04:35:38;;;;;;;17.02;3.33;;;;;;;;;;5073341;27;100537;-81
2023/07/03 04:38:04;;;;;;;9.48;2.47;;;;;;;;;;5072259;27;99499;-80
2023/07/03 04:40:31;;;;;;;12.23;3.13;;;;;;;;;;5073254;27;100258;-81
2023/07/03 04:42:57;;;;;;;11.13;2.78;;;;;;;;;;5085747;27;100550;-80
2023/07/03 04:45:25;;;;;;;6.38;2.53;;;;;;;;;;5093541;27;100245;-80
2023/07/03 04:47:52;;;;;;;7.72;2.95;;;;;;;;;;5097306;27;100208;-81
2023/07/03 04:50:18;;;;;;;12.27;2.65;;;;;;;;;;5094875;27;99498;-80
2023/07/03 04:52:46;;;;;;;7.65;2.05;;;;;;;;;;5094060;27;99031;-80
2023/07/03 04:55:13;;;;;;;4.30;1.75;;;;;;;;;;5087160;27;99231;-81
2023/07/03 04:57:40;;;;;;;8.18;2.17;;;;;;;;;;5070854;27;100663;-80
2023/07/03 05:00:14;;;;;;;7.20;2.03;;;;;;;;;;5072061;27;99743;-80
2023/07/03 05:02:42;;;;;;;4.57;1.98;;;;;;;;;;5073157;27;99840;-80
2023/07/03 05:05:11;;;;;;;7.63;1.80;;;;;;;;;;5071102;27;99214;-80
2023/07/03 05:07:40;;;;;;;6.28;1.85;;;;;;;;;;5082209;27;99994;-80
2023/07/03 05:10:08;;;;;;;7.25;2.92;;;;;;;;;;5095767;27;99402;-80
2023/07/03 05:12:34;;;;;;;7.47;2.13;;;;;;;;;;5083687;27;99930;-81
2023/07/03 05:15:03;;;;;;;6.25;1.83;;;;;;;;;;5073487;27;100634;-80
2023/07/03 05:17:30;;;;;;;6.53;2.03;;;;;;;;;;5074877;27;100401;-81
2023/07/03 05:19:56;;;;;;;5.22;1.70;;;;;;;;;;5072378;27;100223;-78
2023/07/03 05:22:24;;;;;;;6.78;1.90;;;;;;;;;;5071861;27;99274;-79
2023/07/03 05:24:50;;;;;;;4.95;2.17;;;;;;;;;;5072322;27;99446;-79
2023/07/03 05:27:17;;;;;;;4.82;1.63;;;;;;;;;;5071643;27;99825;-79
2023/07/03 05:29:43;;;;;;;5.18;2.28;;;;;;;;;;5073091;27;99878;-78
2023/07/03 05:32:11;;;;;;;4.22;1.52;;;;;;;;;;5085147;27;100287;-78
2023/07/03 05:34:40;;;;;;;9.65;1.70;;;;;;;;;;5093070;27;100235;-77
2023/07/03 05:37:06;;;;;;;4.75;1.85;;;;;;;;;;5092743;27;99562;-80
2023/07/03 05:39:34;;;;;;;5.57;1.73;;;;;;;;;;5093914;27;99950;-79
2023/07/03 05:42:01;;;;;;;4.78;1.83;;;;;;;;;;5083735;27;99818;-78
2023/07/03 05:44:28;;;;;;;13.75;2.00;;;;;;;;;;5087264;27;100396;-81
2023/07/03 05:46:54;;;;;;;4.38;1.70;;;;;;;;;;5086899;27;99311;-80
2023/07/03 05:49:21;;;;;;;12.43;2.45;;;;;;;;;;5088922;27;100853;-83
2023/07/03 05:51:48;;;;;;;7.82;2.15;;;;;;;;;;5090797;27;100265;-82
2023/07/03 05:54:16;;;;;;;7.63;2.45;;;;;;;;;;5112243;27;100073;-82
2023/07/03 05:56:54;;;;;;;8.85;1.80;;;;;;;;;;5114075;27;99544;-82
2023/07/03 05:59:21;;;;;;;7.00;2.10;;;;;;;;;;5101164;27;98796;-79
2023/07/03 06:01:47;;;;;;;15.80;3.03;;;;;;;;;;5105194;27;100110;-79
2023/07/03 06:04:14;;;;;;;9.13;2.45;;;;;;;;;;5111683;27;98119;-80
2023/07/03 06:06:40;;;;;;;4.43;1.77;;;;;;;;;;5092651;27;99259;-79
2023/07/03 06:09:07;;;;;;;7.65;2.30;;;;;;;;;;5078356;27;100117;-83
2023/07/03 06:11:34;;;;;;;8.18;2.42;;;;;;;;;;5083774;27;101404;-82
2023/07/03 06:14:01;;;;;;;5.95;2.22;;;;;;;;;;5089524;27;100121;-83
2023/07/03 06:16:30;;;;;;;8.85;2.10;;;;;;;;;;5083293;27;99628;-84
2023/07/03 06:18:56;;;;;;;9.05;1.70;;;;;;;;;;5086142;27;99254;-79
2023/07/03 06:21:23;;;;;;;6.93;2.20;;;;;;;;;;5084998;27;98706;-77
2023/07/03 06:23:49;;;;;;;11.02;1.90;;;;;;;;;;5078732;27;100616;-80
2023/07/03 06:26:16;;;;;;;9.27;2.05;;;;;;;;;;5087130;27;98992;-80
2023/07/03 06:28:44;;;;;;;10.57;2.47;;;;;;;;;;5079042;27;100037;-81
2023/07/03 06:31:10;;;;;;;7.70;2.38;;;;;;;;;;5073314;27;99351;-81
2023/07/03 06:33:37;;;;;;;8.05;2.03;;;;;;;;;;5081443;27;98955;-81
2023/07/03 06:36:04;;;;;;;9.15;2.50;;;;;;;;;;5073490;27;99634;-81
2023/07/03 06:38:30;;;;;;;6.82;2.08;;;;;;;;;;5092492;27;100443;-80
2023/07/03 06:40:59;;;;;;;6.35;2.00;;;;;;;;;;5068967;27;99003;-80
2023/07/03 06:43:25;;;;;;;6.72;1.80;;;;;;;;;;5087812;27;99209;-81
2023/07/03 06:45:52;;;;;;;8.32;1.92;;;;;;;;;;5087141;27;100345;-81
2023/07/03 06:48:24;;;;;;;10.27;2.45;;;;;;;;;;5088144;27;98968;-81
2023/07/03 06:50:59;;;;;;;7.90;2.03;;;;;;;;;;5087064;27;99415;-80
2023/07/03 06:53:26;;;;;;;14.77;2.92;;;;;;;;;;5082623;27;98977;-81
2023/07/03 06:55:56;;;;;;;8.00;2.45;;;;;;;;;;5068137;27;99213;-80
2023/07/03 06:58:25;;;;;;;7.53;1.70;;;;;;;;;;5088194;27;100415;-81
2023/07/03 07:00:51;;;;;;;12.43;2.45;;;;;;;;;;5088227;27;100109;-81
2023/07/03 07:03:19;;;;;;;10.00;2.03;;;;;;;;;;5071367;27;100254;-80
2023/07/03 07:05:46;;;;;;;8.27;2.13;;;;;;;;;;5066790;27;99367;-81
2023/07/03 07:08:18;;;;;;;7.93;2.03;;;;;;;;;;5086111;27;99985;-81
2023/07/03 07:10:45;;;;;;;5.93;2.13;;;;;;;;;;5088818;27;100301;-81
2023/07/03 07:13:13;;;;;;;5.25;1.98;;;;;;;;;;5086523;27;99228;-81
2023/07/03 07:15:41;;;;;;;10.10;1.52;;;;;;;;;;5087944;27;98877;-81
2023/07/03 07:18:08;;;;;;;14.18;2.50;;;;;;;;;;5088177;27;99592;-81
2023/07/03 07:20:38;;;;;;;4.40;1.80;;;;;;;;;;5092130;27;99967;-82
2023/07/03 07:23:06;;;;;;;3.80;1.83;;;;;;;;;;5074342;27;100170;-82
2023/07/03 07:25:36;;;;;;;6.93;1.70;;;;;;;;;;5066302;27;100171;-82
2023/07/03 07:28:03;;;;;;;9.45;1.80;;;;;;;;;;5068256;27;100075;-82
2023/07/03 07:30:29;;;;;;;7.28;1.65;;;;;;;;;;5074373;27;100434;-82
2023/07/03 07:32:56;;;;;;;8.77;2.03;;;;;;;;;;5085521;27;99687;-80
2023/07/03 07:35:23;;;;;;;16.63;2.22;;;;;;;;;;5082130;27;98856;-79
2023/07/03 07:37:49;;;;;;;4.60;1.80;;;;;;;;;;5093477;27;100609;-80
2023/07/03 07:40:16;;;;;;;9.75;1.88;;;;;;;;;;5089763;27;99025;-81
2023/07/03 07:42:43;;;;;;;8.43;1.92;;;;;;;;;;5091908;27;99876;-80
2023/07/03 07:45:11;;;;;;;5.93;1.95;;;;;;;;;;5085713;27;100338;-80
2023/07/03 07:47:38;;;;;;;7.10;2.00;;;;;;;;;;5057219;27;99841;-80
2023/07/03 07:50:05;;;;;;;13.70;2.03;;;;;;;;;;5065898;27;100320;-80
2023/07/03 07:52:31;;;;;;;8.32;2.80;;;;;;;;;;5068380;27;99267;-80
2023/07/03 07:54:58;;;;;;;13.02;2.55;;;;;;;;;;5066473;27;100087;-81
2023/07/03 07:57:25;;;;;;;4.97;1.33;;;;;;;;;;5066867;27;100288;-83
2023/07/03 07:59:52;;;;;;;5.07;1.90;;;;;;;;;;5067504;27;100165;-82
2023/07/03 08:02:18;;;;;;;4.68;1.60;;;;;;;;;;5084537;27;100131;-83
2023/07/03 08:04:45;;;;;;;7.78;2.30;;;;;;;;;;5090332;27;100228;-82
2023/07/03 08:07:12;;;;;;;7.38;1.92;;;;;;;;;;5087666;27;100982;-82
2023/07/03 08:09:38;;;;;;;5.32;1.52;;;;;;;;;;5086387;27;99572;-82
2023/07/03 08:12:05;;;;;;;6.47;2.00;;;;;;;;;;5067558;27;99169;-82
2023/07/03 08:14:32;;;;;;;3.78;1.05;;;;;;;;;;5085634;27;101387;-81
2023/07/03 08:16:58;;;;;;;6.78;2.20;;;;;;;;;;5076572;27;100202;-82
2023/07/03 08:19:25;;;;;;;5.50;2.15;;;;;;;;;;5069362;27;99833;-81
2023/07/03 08:21:55;;;;;;;5.53;1.75;;;;;;;;;;5065504;27;98919;-82
2023/07/03 08:24:22;;;;;;;6.22;2.17;;;;;;;;;;5067301;27;100134;-81
2023/07/03 08:26:50;;;;;;;5.93;1.90;;;;;;;;;;5070265;27;100059;-83
2023/07/03 08:29:16;;;;;;;6.32;2.03;;;;;;;;;;5065569;27;100319;-76
2023/07/03 08:31:44;;;;;;;6.70;1.33;;;;;;;;;;5074111;27;99073;-75
2023/07/03 08:34:12;;;;;;;9.70;1.80;;;;;;;;;;5085452;27;98476;-83
2023/07/03 08:36:39;;;;;;;10.07;2.67;;;;;;;;;;5085395;27;100152;-80
2023/07/03 08:39:08;;;;;;;5.28;1.70;;;;;;;;;;5084194;27;99618;-80
2023/07/03 08:41:40;;;;;;;7.45;2.03;;;;;;;;;;5068985;27;100751;-80
2023/07/03 08:44:07;;;;;;;6.57;2.10;;;;;;;;;;5085658;27;99276;-81
2023/07/03 08:46:33;;;;;;;3.85;1.77;;;;;;;;;;5082843;27;99858;-81
2023/07/03 08:49:03;;;;;;;4.57;1.63;;;;;;;;;;5068892;27;99378;-81
2023/07/03 08:51:33;;;;;;;6.53;2.08;;;;;;;;;;5084232;27;99867;-82
2023/07/03 08:54:15;;;;;;;12.00;1.95;;;;;;;;;;5086132;27;98933;-81
2023/07/03 08:56:42;;;;;;;7.88;2.63;;;;;;;;;;5086345;27;98524;-81
2023/07/03 08:59:08;;;;;;;4.50;1.50;;;;;;;;;;5086298;27;99131;-80
2023/07/03 09:01:53;;;;;;;11.40;2.05;;;;;;;;;;5082390;27;99276;-81
2023/07/03 09:04:39;;;;;;;4.60;1.52;;;;;;;;;;5064280;27;100058;-83
2023/07/03 09:07:08;;;;;;;12.27;3.00;;;;;;;;;;5065260;27;99428;-82
2023/07/03 09:09:45;;;;;;;7.30;2.40;;;;;;;;;;5068291;27;99728;-81
2023/07/03 09:12:17;;;;;;;3.88;1.73;;;;;;;;;;5078348;27;99130;-82
2023/07/03 09:14:48;;;;;;;9.18;2.08;;;;;;;;;;5083585;27;99810;-80
2023/07/03 09:17:16;;;;;;;11.85;1.98;;;;;;;;;;5112802;27;99294;-82
2023/07/03 09:19:44;;;;;;;6.50;1.58;;;;;;;;;;5094277;27;98871;-81
2023/07/03 09:22:16;;;;;;;8.07;2.20;;;;;;;;;;5115507;27;98896;-80
2023/07/03 09:24:44;;;;;;;9.27;1.92;;;;;;;;;;5114397;27;98135;-81
2023/07/03 09:27:24;;;;;;;5.25;1.20;;;;;;;;;;5112483;27;98995;-82
2023/07/03 09:29:52;;;;;;;5.60;1.70;;;;;;;;;;5090695;27;100102;-81
2023/07/03 09:32:24;;;;;;;10.63;2.47;;;;;;;;;;5097192;27;100960;-80
2023/07/03 09:35:10;;;;;;;4.57;1.52;;;;;;;;;;5087841;27;99250;-80
2023/07/03 09:37:41;;;;;;;9.02;1.92;;;;;;;;;;5079188;27;99660;-81
2023/07/03 09:40:12;;;;;;;5.00;1.55;;;;;;;;;;5089968;27;100291;-81
2023/07/03 09:42:40;;;;;;;4.93;1.70;;;;;;;;;;5089516;27;99136;-81
2023/07/03 09:45:14;;;;;;;8.43;2.03;;;;;;;;;;5087450;27;100095;-81
2023/07/03 09:47:41;;;;;;;5.13;1.85;;;;;;;;;;5088881;27;98981;-82
2023/07/03 09:50:11;;;;;;;9.40;1.90;;;;;;;;;;5089475;27;99171;-82
2023/07/03 09:52:41;;;;;;;8.00;1.70;;;;;;;;;;5089764;27;100563;-81
2023/07/03 09:55:19;;;;;;;6.40;1.65;;;;;;;;;;5090540;27;101481;-81
2023/07/03 09:57:47;;;;;;;8.30;1.65;;;;;;;;;;5089566;27;100017;-81
2023/07/03 10:00:21;;;;;;;10.23;2.63;;;;;;;;;;5056462;27;99894;-81
2023/07/03 10:02:55;;;;;;;5.25;1.45;;;;;;;;;;5053652;27;99894;-81
2023/07/03 10:05:29;;;;;;;7.25;1.50;;;;;;;;;;5088590;27;100264;-81
2023/07/03 10:08:00;;;;;;;5.00;1.58;;;;;;;;;;5091155;27;99947;-81
2023/07/03 10:10:28;;;;;;;4.97;1.83;;;;;;;;;;5075002;27;99825;-81
2023/07/03 10:13:12;;;;;;;10.05;2.13;;;;;;;;;;5068472;27;99787;-81
2023/07/03 10:15:40;;;;;;;4.47;1.77;;;;;;;;;;5049720;27;98994;-81
2023/07/03 10:18:13;;;;;;;6.22;1.60;;;;;;;;;;5078748;27;99932;-81
2023/07/03 10:20:42;;;;;;;10.55;1.75;;;;;;;;;;5088183;27;99251;-81
2023/07/03 10:23:10;;;;;;;7.18;1.77;;;;;;;;;;5088474;27;100944;-81
2023/07/03 10:25:40;;;;;;;6.28;1.75;;;;;;;;;;5087460;27;100249;-81
2023/07/03 10:28:09;;;;;;;5.45;1.67;;;;;;;;;;5086701;27;99143;-81
2023/07/03 10:30:37;;;;;;;6.72;1.67;;;;;;;;;;5088959;27;100296;-82
2023/07/03 10:33:07;;;;;;;7.85;1.85;;;;;;;;;;5088682;27;100212;-81
2023/07/03 10:35:33;;;;;;;6.00;1.88;;;;;;;;;;5086376;27;100265;-82
2023/07/03 10:38:15;;;;;;;3.58;1.77;;;;;;;;;;5086995;27;100063;-82
2023/07/03 10:40:55;;;;;;;2.45;1.17;;;;;;;;;;5088949;27;100094;-81
2023/07/03 10:43:23;;;;;;;4.45;1.60;;;;;;;;;;5075751;27;98910;-81
2023/07/03 10:45:49;;;;;;;4.55;1.90;;;;;;;;;;5067402;27;100174;-82
2023/07/03 10:48:19;;;;;;;5.25;2.15;;;;;;;;;;5077716;27;100188;-82
2023/07/03 10:50:46;;;;;;;9.25;2.35;;;;;;;;;;5087582;27;99066;-81
2023/07/03 10:53:21;;;;;;;11.10;2.28;;;;;;;;;;5081336;27;99152;-80
2023/07/03 10:55:54;;;;;;;7.15;1.98;;;;;;;;;;5090693;27;99865;-82
2023/07/03 10:58:26;;;;;;;5.05;2.08;;;;;;;;;;5087923;27;100412;-81
2023/07/03 11:00:53;;;;;;;;;;;;;;;;;;5088927;27;100023;-80
2023/07/03 11:03:19;;;;;;;4.53;1.42;;;;;;;;;;5091277;27;98516;-83
2023/07/03 11:06:12;;;;;;;4.53;1.30;;;;;;;;;;5089627;27;100512;-81
2023/07/03 11:08:48;;;;;;;5.28;2.03;;;;;;;;;;5086943;27;100080;-80
2023/07/03 11:11:23;;;;;;;7.65;2.10;;;;;;;;;;5086745;27;100318;-79
2023/07/03 11:13:53;;;;;;;8.32;1.70;;;;;;;;;;5067463;27;99126;-79
2023/07/03 11:16:21;;;;;;;10.65;1.58;;;;;;;;;;5086267;27;100068;-78
2023/07/03 11:19:04;;;;;;;8.27;2.05;;;;;;;;;;5086208;27;100535;-79
2023/07/03 11:21:38;;;;;;;6.00;1.95;;;;;;;;;;5088755;27;99457;-78
2023/07/03 11:24:07;;;;;;;;;;;;;;;;;;5091329;27;100042;-78
2023/07/03 11:26:33;;;;;;;7.55;2.03;;;;;;;;;;5084349;27;129230;-78
2023/07/03 11:29:05;;;;;;;7.15;2.17;;;;;;;;;;5069454;27;100092;-78
2023/07/03 11:31:32;;;;;;;6.00;1.88;;;;;;;;;;5071293;27;98845;-78
2023/07/03 11:33:58;;;;;;;9.02;2.05;;;;;;;;;;5067915;27;100294;-77
2023/07/03 11:36:46;;;;;;;9.40;2.50;;;;;;;;;;5067138;27;99285;-77
2023/07/03 11:39:29;;;;;;;8.10;2.83;;;;;;;;;;5084399;27;100161;-75
2023/07/03 11:42:05;;;;;;;6.45;2.03;;;;;;;;;;5072315;27;99206;-78
2023/07/03 11:44:40;;;;;;;6.80;3.25;;;;;;;;;;5090775;27;100084;-80
2023/07/03 11:47:11;;;;;;;8.20;2.45;;;;;;;;;;5090791;27;100558;-79
2023/07/03 11:49:47;;;;;;;6.82;2.17;;;;;;;;;;5071242;27;98666;-80
2023/07/03 11:52:22;;;;;;;11.80;2.00;;;;;;;;;;5089546;27;100040;-79
2023/07/03 11:54:57;;;;;;;8.07;1.83;;;;;;;;;;5090732;27;99454;-80
2023/07/03 11:57:32;;;;;;;9.57;1.92;;;;;;;;;;5087647;27;99980;-79
2023/07/03 11:59:58;;;;;;;;;;;;;;;;;;5087968;27;100170;-78
2023/07/03 12:02:42;;;;;;;4.30;1.33;;;;;;;;;;5087062;27;129038;-78
2023/07/03 12:05:31;;;;;;;2.10;1.20;;;;;;;;;;5078379;27;100131;-78
2023/07/03 12:07:58;;;;;;;8.65;2.20;;;;;;;;;;5073531;27;99651;-81
2023/07/03 12:10:29;;;;;;;9.35;2.42;;;;;;;;;;5087039;27;99599;-81
2023/07/03 12:13:17;;;;;;;10.90;2.10;;;;;;;;;;5088620;27;99038;-81
2023/07/03 12:15:55;;;;;;;3.37;1.47;;;;;;;;;;5030313;27;100242;-81
2023/07/03 12:18:22;;;;;;;5.93;1.73;;;;;;;;;;5072127;27;100105;-80
2023/07/03 12:21:04;;;;;;;8.23;2.10;;;;;;;;;;5086629;27;98949;-80
2023/07/03 12:23:36;;;;;;;9.55;1.83;;;;;;;;;;5087896;27;100191;-81
2023/07/03 12:26:02;;;;;;;;;;;;;;;;;;5070662;27;98834;-82
2023/07/03 12:28:33;;;;;;;6.25;2.28;;;;;;;;;;5069524;27;99589;-81
2023/07/03 12:31:10;;;;;;;8.23;2.38;;;;;;;;;;5071662;27;100492;-81
2023/07/03 12:33:52;;;;;;;9.32;2.58;;;;;;;;;;5075054;27;99755;-81
2023/07/03 12:36:31;;;;;;;5.90;1.55;;;;;;;;;;5089201;27;100336;-81
2023/07/03 12:39:09;;;;;;;4.32;1.42;;;;;;;;;;5100594;27;98315;-82
2023/07/03 12:41:36;;;;;;;3.05;1.27;;;;;;;;;;5085577;27;98335;-80
2023/07/03 12:44:06;;;;;;;6.25;1.90;;;;;;;;;;5109464;27;100194;-82
2023/07/03 12:46:38;;;;;;;4.97;2.08;;;;;;;;;;5111329;27;98765;-80
2023/07/03 12:49:12;;;;;;;9.07;1.65;;;;;;;;;;5085905;27;99529;-81
2023/07/03 12:51:51;;;;;;;3.78;1.38;;;;;;;;;;5078319;27;100073;-81
2023/07/03 12:54:18;;;;;;;2.15;1.27;;;;;;;;;;5083634;27;100030;-81
2023/07/03 12:56:45;;;;;;;6.82;1.85;;;;;;;;;;5091219;27;99605;-81
2023/07/03 12:59:14;;;;;;;10.80;1.55;;;;;;;;;;5084244;27;98665;-81
2023/07/03 13:01:41;;;;;;;7.18;2.33;;;;;;;;;;5069906;27;100327;-82
2023/07/03 13:04:09;;;;;;;12.50;1.55;;;;;;;;;;5083032;27;100135;-81
2023/07/03 13:06:36;;;;;;;3.50;2.28;;;;;;;;;;5071405;27;99094;-81
2023/07/03 13:09:03;;;;;;;8.90;1.83;;;;;;;;;;5083424;27;99353;-82
2023/07/03 13:11:31;;;;;;;2.92;1.10;;;;;;;;;;5089405;27;99756;-81
2023/07/03 13:14:09;;;;;;;2.70;1.35;;;;;;;;;;5072260;27;99850;-81
2023/07/03 13:16:36;;;;;;;10.30;1.50;;;;;;;;;;5080346;27;100073;-81
2023/07/03 13:19:08;;;;;;;5.15;1.60;;;;;;;;;;5088629;27;99848;-80
2023/07/03 13:21:38;;;;;;;8.80;1.70;;;;;;;;;;5087633;27;99713;-81
2023/07/03 13:24:06;;;;;;;4.45;1.70;;;;;;;;;;5092810;27;100249;-82
2023/07/03 13:26:36;;;;;;;5.55;1.35;;;;;;;;;;5088541;27;101295;-81
2023/07/03 13:29:04;;;;;;;16.70;1.73;;;;;;;;;;5075721;27;99832;-79
2023/07/03 13:31:32;;;;;;;12.45;1.45;;;;;;;;;;5087564;27;99843;-79
2023/07/03 13:34:18;;;;;;;3.70;1.10;;;;;;;;;;5075567;27;99004;-81
2023/07/03 13:37:00;;;;;;;7.32;1.55;;;;;;;;;;5074557;27;100883;-79
2023/07/03 13:39:28;;;;;;;22.52;1.42;;;;;;;;;;5072022;27;99189;-79
2023/07/03 13:41:57;;;;;;;5.50;1.38;;;;;;;;;;5075652;27;99197;-80
2023/07/03 13:44:24;;;;;;;4.47;1.30;;;;;;;;;;5092752;27;100725;-82
2023/07/03 13:46:51;;;;;;;2.10;1.25;;;;;;;;;;5086956;27;100113;-81
2023/07/03 13:49:18;;;;;;;3.33;0.93;;;;;;;;;;5088398;27;99310;-81
2023/07/03 13:51:45;;;;;;;10.02;1.90;;;;;;;;;;5101588;27;100244;-80
2023/07/03 13:54:13;;;;;;;3.55;1.10;;;;;;;;;;5090576;27;100178;-81
2023/07/03 13:56:40;;;;;;;4.75;1.45;;;;;;;;;;5097718;27;99208;-78
2023/07/03 13:59:09;;;;;;;10.43;1.77;;;;;;;;;;5074099;27;100113;-78
2023/07/03 14:01:36;;;;;;;3.45;1.08;;;;;;;;;;5094001;27;100095;-80
2023/07/03 14:04:03;;;;;;;5.75;1.60;;;;;;;;;;5089313;27;99351;-80
2023/07/03 14:06:29;;;;;;;9.02;1.90;;;;;;;;;;5084598;27;100148;-80
2023/07/03 14:08:56;;;;;;;7.20;1.40;;;;;;;;;;5076201;27;101418;-80
2023/07/03 14:11:24;;;;;;;8.43;1.60;;;;;;;;;;5078818;27;99429;-79
2023/07/03 14:13:50;;;;;;;8.45;1.45;;;;;;;;;;5050497;27;100024;-78
2023/07/03 14:16:18;;;;;;;8.52;1.73;;;;;;;;;;5068091;27;100470;-78
2023/07/03 14:18:45;;;;;;;7.70;1.30;;;;;;;;;;5068382;27;99558;-80
2023/07/03 14:21:12;;;;;;;2.80;1.10;;;;;;;;;;5071058;27;99949;-81
2023/07/03 14:23:38;;;;;;;4.72;1.58;;;;;;;;;;5077280;27;99969;-79
2023/07/03 14:26:04;;;;;;;6.53;1.95;;;;;;;;;;5075331;27;99774;-80
2023/07/03 14:28:31;;;;;;;4.75;1.40;;;;;;;;;;5086683;27;99128;-80
2023/07/03 14:30:57;;;;;;;4.40;1.70;;;;;;;;;;5088423;27;99445;-81
2023/07/03 14:33:24;;;;;;;5.22;1.48;;;;;;;;;;5069632;27;99888;-80
2023/07/03 14:35:50;;;;;;;4.13;1.33;;;;;;;;;;5087013;27;100152;-79
2023/07/03 14:38:18;;;;;;;7.80;1.95;;;;;;;;;;5071652;27;100578;-80
2023/07/03 14:40:44;;;;;;;7.78;1.52;;;;;;;;;;5072169;27;99385;-81
2023/07/03 14:43:11;;;;;;;2.58;1.40;;;;;;;;;;5073280;27;99294;-80
2023/07/03 14:45:37;;;;;;;3.38;1.70;;;;;;;;;;5092028;27;100089;-79